Pego, Spain
Current Conditions -  °F | °C
As of 9:30 PM on Friday 28 Nov 2014 (Local Time) from LEAL Reporting Station
Few Clouds Few Clouds  
Wind Chill: 64°   Ceiling: Unl
Heat Index: 64°   Visibility: 6mi
Dew Point: 57°   Wind: 9mph
Humidity: 77%   Direction: 130°SE
Pressure: 29.29"   Gusts: NA
Location:  38.84°N, 0.12°W
Report Text: LEAL 282030Z 13008KT 080V190 9999 FEW020 18/14 Q0992 NOSIG
Loading
Personal Weather Stations






























Interactive Weather Map New forecast layout! Learn more

10-Day Weather Forecast

Advertisements
Track Severe Weather on mobile